Time;durP1;ratioP1;P1;durP2;ratioP2;P2;SDS_P1;SDS_P2;PMS_P1;PMS_P2;Temp;Humidity;BMP_temperature;BMP_pressure;BME280_temperature;BME280_humidity;BME280_pressure;Samples;Min_cycle;Max_cycle;Signal;HPM_P1;HPM_P2
2023/10/22 00:00:39;;;;;;;2.45;1.58;;;;;;;9.39;100.00;97771.91;5053732;23;20072;-80
2023/10/22 00:03:04;;;;;;;3.40;1.90;;;;;;;9.33;100.00;97800.59;5000611;28;20018;-80
2023/10/22 00:05:30;;;;;;;4.10;2.00;;;;;;;9.45;100.00;97841.22;4987225;28;20056;-80
2023/10/22 00:07:55;;;;;;;4.18;2.63;;;;;;;9.27;100.00;97835.75;5011937;28;20040;-80
2023/10/22 00:10:20;;;;;;;4.93;2.10;;;;;;;9.22;100.00;97847.19;5014075;28;20033;-80
2023/10/22 00:12:46;;;;;;;3.28;1.95;;;;;;;9.32;100.00;97862.91;4993768;28;20322;-80
2023/10/22 00:15:11;;;;;;;3.38;1.88;;;;;;;9.23;100.00;97848.84;5024081;28;20089;-77
2023/10/22 00:17:36;;;;;;;5.50;2.40;;;;;;;9.32;100.00;97861.03;5023483;28;20310;-78
2023/10/22 00:20:02;;;;;;;5.10;2.45;;;;;;;9.50;100.00;97872.94;5005803;28;20037;-78
2023/10/22 00:22:28;;;;;;;6.50;2.38;;;;;;;9.53;100.00;97872.50;5004056;28;20017;-78
2023/10/22 00:24:53;;;;;;;5.25;2.58;;;;;;;9.49;100.00;97864.03;5006168;28;20021;-78
2023/10/22 00:27:19;;;;;;;6.22;3.15;;;;;;;9.55;100.00;97878.53;5017996;28;20022;-78
2023/10/22 00:29:44;;;;;;;4.68;2.67;;;;;;;9.49;100.00;97882.09;5005670;28;20049;-79
2023/10/22 00:32:09;;;;;;;4.97;2.90;;;;;;;9.46;100.00;97896.03;5003617;28;20022;-78
2023/10/22 00:34:35;;;;;;;3.55;2.63;;;;;;;9.49;100.00;97896.44;5006257;28;20342;-78
2023/10/22 00:37:01;;;;;;;3.63;2.45;;;;;;;9.56;100.00;97899.06;5002132;28;20101;-78
2023/10/22 00:39:26;;;;;;;4.00;2.20;;;;;;;9.65;100.00;97878.84;5020463;28;20017;-78
2023/10/22 00:41:51;;;;;;;3.20;1.85;;;;;;;9.81;100.00;97896.38;5023675;28;20021;-78
2023/10/22 00:44:16;;;;;;;3.60;2.17;;;;;;;9.60;100.00;97871.41;5002988;28;20330;-78
2023/10/22 00:46:45;;;;;;;3.63;2.10;;;;;;;9.78;100.00;97899.53;5018738;28;20017;-78
2023/10/22 00:49:11;;;;;;;4.15;2.25;;;;;;;9.64;100.00;97872.63;5005685;28;20033;-78
2023/10/22 00:51:36;;;;;;;4.25;2.15;;;;;;;9.68;100.00;97875.72;5007616;28;20029;-78
2023/10/22 00:54:02;;;;;;;3.47;2.20;;;;;;;9.74;100.00;97882.09;5009084;28;20045;-77
2023/10/22 00:56:28;;;;;;;3.63;2.20;;;;;;;9.72;100.00;97884.19;5027245;28;20025;-78
2023/10/22 00:58:53;;;;;;;6.70;2.10;;;;;;;9.87;100.00;97882.00;5023214;28;20018;-78
2023/10/22 01:01:20;;;;;;;2.83;2.25;;;;;;;9.83;100.00;97864.59;5009788;28;20326;-77
2023/10/22 01:03:45;;;;;;;4.18;2.30;;;;;;;9.82;100.00;97871.88;5009492;28;20056;-78
2023/10/22 01:06:11;;;;;;;4.18;1.90;;;;;;;9.84;100.00;97888.66;5013312;28;20064;-78
2023/10/22 01:08:37;;;;;;;5.05;2.10;;;;;;;9.81;100.00;97885.59;5009451;28;20230;-78
2023/10/22 01:11:10;;;;;;;2.95;1.92;;;;;;;9.67;100.00;97887.56;5003337;28;20267;-78
2023/10/22 01:13:36;;;;;;;3.50;1.88;;;;;;;9.52;100.00;97885.19;5006295;28;20022;-78
2023/10/22 01:16:02;;;;;;;2.10;1.90;;;;;;;9.43;100.00;97890.03;4994418;28;20022;-78
2023/10/22 01:18:28;;;;;;;3.58;1.85;;;;;;;9.37;100.00;97908.97;4990235;28;20022;-78
2023/10/22 01:20:53;;;;;;;4.57;2.30;;;;;;;9.16;100.00;97915.53;4997929;28;20022;-78
2023/10/22 01:23:19;;;;;;;3.72;1.88;;;;;;;8.98;100.00;97900.88;5006990;28;20026;-78
2023/10/22 01:25:44;;;;;;;7.70;2.50;;;;;;;9.01;100.00;97899.63;5009678;28;20258;-78
2023/10/22 01:28:10;;;;;;;5.07;1.92;;;;;;;9.24;100.00;97914.44;5009460;28;20030;-78
2023/10/22 01:30:35;;;;;;;3.22;2.00;;;;;;;9.27;100.00;97901.34;5026806;28;20022;-78
2023/10/22 01:33:01;;;;;;;2.40;1.98;;;;;;;9.49;100.00;97907.22;5025043;28;20222;-77
2023/10/22 01:35:26;;;;;;;4.05;1.95;;;;;;;9.49;100.00;97906.41;5005480;28;20026;-78
2023/10/22 01:37:52;;;;;;;3.67;2.03;;;;;;;9.41;100.00;97889.41;5016366;28;20022;-78
2023/10/22 01:40:17;;;;;;;4.32;2.25;;;;;;;9.60;100.00;97911.91;5008072;28;20067;-78
2023/10/22 01:42:42;;;;;;;2.53;1.90;;;;;;;9.65;100.00;97911.28;5020602;28;20026;-78
2023/10/22 01:45:08;;;;;;;3.15;1.95;;;;;;;9.73;100.00;97905.59;5009232;28;20219;-77
2023/10/22 01:47:33;;;;;;;4.50;2.30;;;;;;;9.64;100.00;97896.94;5009454;28;20028;-78
2023/10/22 01:49:58;;;;;;;6.80;2.00;;;;;;;9.60;100.00;97897.59;5009021;28;20049;-78
2023/10/22 01:52:24;;;;;;;6.90;2.40;;;;;;;9.60;100.00;97903.81;5021147;28;20029;-78
2023/10/22 01:54:50;;;;;;;3.28;2.55;;;;;;;9.56;100.00;97899.91;5024897;28;20064;-78
2023/10/22 01:57:16;;;;;;;4.13;2.40;;;;;;;9.52;100.00;97901.38;5010971;28;20030;-78
2023/10/22 01:59:42;;;;;;;3.30;2.13;;;;;;;9.36;100.00;97889.25;5013591;28;20033;-79
2023/10/22 02:02:08;;;;;;;3.17;2.30;;;;;;;9.38;100.00;97889.88;5023473;28;20034;-78
2023/10/22 02:04:33;;;;;;;4.57;2.10;;;;;;;9.30;100.00;97878.47;5011966;28;20025;-78
2023/10/22 02:06:58;;;;;;;4.28;2.13;;;;;;;9.34;100.00;97902.13;5000261;28;20382;-78
2023/10/22 02:09:24;;;;;;;3.05;2.00;;;;;;;9.35;100.00;97908.34;4997936;28;20034;-78
2023/10/22 02:11:50;;;;;;;3.35;2.08;;;;;;;9.47;100.00;97919.28;5024811;28;20178;-78
2023/10/22 02:14:16;;;;;;;5.82;2.17;;;;;;;9.55;100.00;97916.31;5021720;28;20382;-77
2023/10/22 02:16:41;;;;;;;3.92;2.13;;;;;;;9.49;100.00;97911.81;5007934;28;20049;-78
2023/10/22 02:19:07;;;;;;;4.50;2.13;;;;;;;9.49;100.00;97911.81;5026929;28;20029;-78
2023/10/22 02:21:32;;;;;;;2.95;2.00;;;;;;;9.59;100.00;97920.25;5014479;28;20064;-77
2023/10/22 02:23:58;;;;;;;3.70;1.70;;;;;;;9.54;100.00;97906.59;4997971;28;20049;-77
2023/10/22 02:26:24;;;;;;;4.22;1.70;;;;;;;9.47;100.00;97890.41;4989786;28;20272;-78
2023/10/22 02:28:49;;;;;;;2.50;1.70;;;;;;;9.62;100.00;97917.13;5008491;28;20030;-78
2023/10/22 02:31:15;;;;;;;5.93;1.85;;;;;;;9.58;100.00;97903.19;5025181;28;20073;-78
2023/10/22 02:33:40;;;;;;;4.90;1.92;;;;;;;9.51;100.00;97899.75;5017429;28;20026;-78
2023/10/22 02:36:06;;;;;;;3.20;1.77;;;;;;;9.61;100.00;97935.16;5020447;28;20053;-78
2023/10/22 02:38:35;;;;;;;15.15;2.00;;;;;;;9.40;100.00;97908.53;5012387;28;20022;-78
2023/10/22 02:41:02;;;;;;;6.80;2.53;;;;;;;9.46;100.00;97937.38;5017381;28;20036;-77
2023/10/22 02:43:27;;;;;;;3.80;2.40;;;;;;;9.36;100.00;97935.13;5009783;28;20034;-78
2023/10/22 02:45:54;;;;;;;3.60;2.22;;;;;;;9.47;100.00;97947.13;5017814;28;20098;-78
2023/10/22 02:48:20;;;;;;;4.57;2.50;;;;;;;9.41;100.00;97954.22;5008158;28;20045;-78
2023/10/22 02:50:46;;;;;;;5.35;2.30;;;;;;;9.32;100.00;97954.69;5026055;28;20326;-78
2023/10/22 02:53:12;;;;;;;4.45;2.00;;;;;;;9.18;100.00;97935.84;5008010;28;20068;-78
2023/10/22 02:55:38;;;;;;;2.97;2.05;;;;;;;9.18;100.00;97946.66;5008350;28;20059;-78
2023/10/22 02:58:03;;;;;;;4.63;1.80;;;;;;;9.23;100.00;97950.59;5008463;28;20018;-77
2023/10/22 03:00:28;;;;;;;3.50;1.80;;;;;;;9.24;100.00;97961.16;5007715;28;20018;-78
2023/10/22 03:02:54;;;;;;;1.98;1.55;;;;;;;9.24;100.00;97952.22;5025830;28;20022;-78
2023/10/22 03:05:19;;;;;;;3.28;1.80;;;;;;;9.21;100.00;97940.81;5010157;28;20033;-78
2023/10/22 03:07:44;;;;;;;4.05;2.00;;;;;;;9.16;100.00;97940.63;5011324;28;20026;-78
2023/10/22 03:10:10;;;;;;;2.03;1.50;;;;;;;9.20;100.00;97957.25;5021214;28;20037;-78
2023/10/22 03:12:35;;;;;;;3.38;1.50;;;;;;;9.16;100.00;97939.81;5012040;28;20026;-78
2023/10/22 03:15:01;;;;;;;4.00;1.58;;;;;;;9.17;100.00;97954.97;5042816;28;20337;-79
2023/10/22 03:17:26;;;;;;;2.08;1.50;;;;;;;9.18;100.00;97967.41;5025926;28;20026;-78
2023/10/22 03:19:52;;;;;;;2.53;1.30;;;;;;;9.23;100.00;97962.22;5011075;28;20112;-77
2023/10/22 03:22:18;;;;;;;3.97;1.70;;;;;;;9.19;100.00;97960.97;5011197;28;20192;-78
2023/10/22 03:24:48;;;;;;;4.47;1.80;;;;;;;9.25;100.00;97980.88;5006271;28;20227;-78
2023/10/22 03:27:14;;;;;;;4.00;1.73;;;;;;;9.11;100.00;97964.75;5008204;28;20029;-77
2023/10/22 03:29:39;;;;;;;2.08;1.27;;;;;;;9.16;100.00;97983.00;5000039;28;20042;-78
2023/10/22 03:32:05;;;;;;;3.20;1.70;;;;;;;9.07;100.00;97974.31;4991943;28;20030;-78
2023/10/22 03:34:30;;;;;;;2.55;1.77;;;;;;;9.05;100.00;97970.19;5019039;28;20226;-78
2023/10/22 03:36:56;;;;;;;4.25;1.75;;;;;;;8.99;100.00;97967.28;5018883;28;20032;-78
2023/10/22 03:39:21;;;;;;;1.73;1.30;;;;;;;8.97;100.00;97974.75;5007709;28;20094;-78
2023/10/22 03:41:47;;;;;;;3.53;1.52;;;;;;;8.86;100.00;97950.34;5005579;28;20096;-78
2023/10/22 03:44:12;;;;;;;3.08;1.50;;;;;;;8.86;100.00;97972.75;5001062;28;20311;-78
2023/10/22 03:46:38;;;;;;;3.42;1.67;;;;;;;8.77;100.00;97980.22;5019142;28;20077;-78
2023/10/22 03:49:03;;;;;;;2.22;1.42;;;;;;;8.72;100.00;97984.59;5023178;28;20026;-78
2023/10/22 03:51:28;;;;;;;6.35;2.05;;;;;;;8.63;100.00;97980.47;5024574;28;20033;-79
2023/10/22 03:53:56;;;;;;;3.25;1.60;;;;;;;8.56;100.00;97978.59;5024450;28;20029;-78
2023/10/22 03:56:21;;;;;;;3.92;1.88;;;;;;;8.29;100.00;97955.41;5007327;28;20018;-78
2023/10/22 03:58:47;;;;;;;4.55;1.88;;;;;;;8.44;100.00;97980.31;5005848;28;20009;-78
2023/10/22 04:01:12;;;;;;;3.35;1.42;;;;;;;8.44;100.00;98001.06;5013152;28;20029;-78
2023/10/22 04:03:37;;;;;;;1.98;1.40;;;;;;;8.36;100.00;97996.69;5003907;28;20018;-78
2023/10/22 04:06:03;;;;;;;2.97;2.10;;;;;;;8.40;100.00;98007.88;5024419;28;20022;-78
2023/10/22 04:08:29;;;;;;;2.50;1.70;;;;;;;8.36;100.00;98002.06;5024153;28;20022;-78
2023/10/22 04:10:55;;;;;;;5.72;1.90;;;;;;;8.49;100.00;98010.16;5021988;28;20029;-78
2023/10/22 04:13:20;;;;;;;3.50;1.83;;;;;;;8.45;100.00;97998.13;5006239;28;20033;-78
2023/10/22 04:15:46;;;;;;;5.30;2.00;;;;;;;8.53;100.00;97999.78;5012471;28;20093;-78
2023/10/22 04:18:13;;;;;;;3.80;1.70;;;;;;;8.62;100.00;98009.31;5007041;28;20018;-78
2023/10/22 04:20:39;;;;;;;3.05;1.70;;;;;;;8.48;100.00;97996.88;5016991;28;20026;-78
2023/10/22 04:23:04;;;;;;;6.32;2.10;;;;;;;8.58;100.00;98001.84;5018589;28;20025;-78
2023/10/22 04:25:36;;;;;;;2.80;1.67;;;;;;;8.67;100.00;98014.06;5020887;28;20100;-78
2023/10/22 04:28:03;;;;;;;3.90;1.88;;;;;;;8.71;100.00;98018.81;5035584;28;20314;-78
2023/10/22 04:30:28;;;;;;;4.63;1.98;;;;;;;8.60;100.00;98006.00;5025292;28;20031;-78
2023/10/22 04:32:53;;;;;;;3.28;1.70;;;;;;;8.57;100.00;98006.44;5036529;28;20021;-78
2023/10/22 04:35:19;;;;;;;4.32;1.77;;;;;;;8.48;100.00;97991.50;5059480;28;20071;-78
2023/10/22 04:37:44;;;;;;;4.97;1.65;;;;;;;8.48;100.00;98010.38;5017121;28;20026;-78
2023/10/22 04:40:09;;;;;;;3.97;1.80;;;;;;;8.51;100.00;98028.81;5010587;28;20037;-78
2023/10/22 04:42:35;;;;;;;3.70;1.85;;;;;;;8.35;100.00;98030.03;5050504;28;20029;-79
2023/10/22 04:45:00;;;;;;;4.25;2.25;;;;;;;8.33;100.00;98027.56;5025446;28;20092;-78
2023/10/22 04:47:25;;;;;;;2.33;1.40;;;;;;;8.32;100.00;98030.47;5046604;28;20088;-78
2023/10/22 04:49:51;;;;;;;3.25;1.50;;;;;;;8.33;100.00;98032.09;5036565;28;20029;-78
2023/10/22 04:52:30;;;;;;;2.65;1.45;;;;;;;8.27;100.00;98032.94;5039341;28;20048;-78
2023/10/22 04:54:58;;;;;;;;;;;;;;;8.35;100.00;98047.03;5032447;28;20014;-78
2023/10/22 04:57:24;;;;;;;5.30;1.30;;;;;;;8.20;100.00;98011.41;5027154;28;20206;-78
2023/10/22 04:59:49;;;;;;;3.17;1.10;;;;;;;8.40;100.00;98038.34;5060454;28;20020;-78
2023/10/22 05:02:14;;;;;;;7.10;1.30;;;;;;;8.45;100.00;98035.88;5048664;28;20042;-78
2023/10/22 05:04:40;;;;;;;4.53;1.35;;;;;;;8.60;100.00;98043.75;5028430;28;20017;-76
2023/10/22 05:07:05;;;;;;;3.65;1.30;;;;;;;8.55;100.00;98040.84;5032405;28;20029;-77
2023/10/22 05:09:33;;;;;;;4.10;0.90;;;;;;;8.53;100.00;98038.34;5032299;28;20030;-76
2023/10/22 05:11:58;;;;;;;4.93;1.00;;;;;;;8.51;100.00;98040.44;5032319;28;20029;-75
2023/10/22 05:14:23;;;;;;;2.55;0.93;;;;;;;8.46;100.00;98050.16;5029852;28;20040;-73
2023/10/22 05:16:52;;;;;;;4.35;1.33;;;;;;;8.27;100.00;98046.41;5042732;28;20353;-76
2023/10/22 05:19:17;;;;;;;1.92;1.00;;;;;;;8.18;100.00;98055.75;5032160;28;20048;-76
2023/10/22 05:21:42;;;;;;;2.10;1.10;;;;;;;7.99;100.00;98058.22;5022103;28;20036;-76
2023/10/22 05:24:09;;;;;;;5.72;1.23;;;;;;;7.83;100.00;98055.91;5035557;28;20404;-76
2023/10/22 05:26:34;;;;;;;3.83;1.05;;;;;;;7.72;100.00;98059.19;5041713;28;20043;-77
2023/10/22 05:29:00;;;;;;;4.15;1.00;;;;;;;7.63;100.00;98056.69;5022953;28;20321;-76
2023/10/22 05:31:25;;;;;;;3.00;0.90;;;;;;;7.71;100.00;98069.13;5019478;28;20036;-76
2023/10/22 05:33:50;;;;;;;2.05;1.13;;;;;;;7.84;100.00;98074.56;5040985;28;20033;-76
2023/10/22 05:36:17;;;;;;;3.75;1.02;;;;;;;7.80;100.00;98064.38;5033661;28;20037;-75
2023/10/22 05:38:43;;;;;;;5.05;1.25;;;;;;;7.98;100.00;98088.88;5014371;28;20024;-76
2023/10/22 05:41:15;;;;;;;2.40;1.00;;;;;;;7.94;100.00;98070.63;5041954;28;20029;-77
2023/10/22 05:43:40;;;;;;;2.42;1.00;;;;;;;8.06;100.00;98080.59;5043529;28;20245;-76
2023/10/22 05:46:06;;;;;;;1.40;0.90;;;;;;;8.18;100.00;98078.13;5025683;28;20047;-76
2023/10/22 05:48:31;;;;;;;2.97;0.93;;;;;;;8.23;100.00;98077.53;5030608;28;20041;-76
2023/10/22 05:50:57;;;;;;;3.30;0.93;;;;;;;8.33;100.00;98080.63;5040018;28;20315;-77
2023/10/22 05:53:22;;;;;;;5.50;1.30;;;;;;;8.16;100.00;98074.00;5024391;28;20033;-76
2023/10/22 05:55:55;;;;;;;3.00;1.65;;;;;;;8.10;100.00;98098.03;5036664;28;20036;-76
2023/10/22 05:58:20;;;;;;;7.60;2.20;;;;;;;7.97;100.00;98089.09;5038786;28;20020;-76
2023/10/22 06:00:49;;;;;;;5.70;2.55;;;;;;;7.95;100.00;98105.44;5044150;23;20286;-76
2023/10/22 06:03:14;;;;;;;4.13;2.40;;;;;;;7.87;100.00;98109.16;5036675;28;20036;-77
2023/10/22 06:05:40;;;;;;;3.80;1.50;;;;;;;7.79;100.00;98106.66;5047598;28;20139;-74
2023/10/22 06:08:05;;;;;;;3.95;1.13;;;;;;;7.79;100.00;98116.59;5045922;28;20033;-78
2023/10/22 06:10:30;;;;;;;2.13;1.00;;;;;;;7.82;100.00;98133.16;5051366;28;20111;-77
2023/10/22 06:12:56;;;;;;;2.35;0.90;;;;;;;7.82;100.00;98126.97;5068086;28;20031;-76
2023/10/22 06:15:21;;;;;;;2.90;1.52;;;;;;;7.86;100.00;98122.84;5079771;28;20044;-77
2023/10/22 06:17:47;;;;;;;5.10;1.13;;;;;;;8.04;100.00;98127.63;5059444;28;20035;-76
2023/10/22 06:20:12;;;;;;;4.63;1.20;;;;;;;8.23;100.00;98131.41;5066617;28;20032;-76
2023/10/22 06:22:38;;;;;;;3.05;1.10;;;;;;;8.42;100.00;98141.41;5072838;28;20048;-77
2023/10/22 06:25:04;;;;;;;3.13;1.10;;;;;;;8.49;100.00;98127.97;5074117;28;20031;-77
2023/10/22 06:27:29;;;;;;;1.73;0.95;;;;;;;8.65;100.00;98132.09;5069335;28;20087;-76
2023/10/22 06:29:54;;;;;;;4.03;1.08;;;;;;;8.76;100.00;98131.47;5057058;28;20025;-78
2023/10/22 06:32:20;;;;;;;7.95;2.05;;;;;;;8.95;100.00;98133.31;5074246;28;20044;-74
2023/10/22 06:34:46;;;;;;;5.18;1.40;;;;;;;10.21;100.00;98110.38;5070206;28;20025;-75
2023/10/22 06:37:11;;;;;;;10.07;2.70;;;;;;;11.89;100.00;98091.50;5057032;28;20251;-75
2023/10/22 06:39:36;;;;;;;12.75;4.28;;;;;;;13.27;100.00;98089.50;5054909;28;20020;-75
2023/10/22 06:42:03;;;;;;;22.58;5.50;;;;;;;14.17;100.00;98088.88;5063858;28;20017;-78
2023/10/22 06:44:28;;;;;;;18.90;5.72;;;;;;;14.91;100.00;98085.25;5046416;28;20155;-75
2023/10/22 06:46:53;;;;;;;8.65;2.80;;;;;;;15.30;100.00;98090.69;5070097;28;20021;-77
2023/10/22 06:49:19;;;;;;;5.43;2.05;;;;;;;15.83;100.00;98080.25;5050308;28;20020;-77
2023/10/22 06:51:44;;;;;;;3.13;1.48;;;;;;;16.23;100.00;98081.75;5061918;28;20051;-77
2023/10/22 06:54:10;;;;;;;3.45;1.23;;;;;;;16.79;100.00;98083.13;5066152;28;20025;-77
2023/10/22 06:56:35;;;;;;;3.88;1.40;;;;;;;16.96;100.00;98093.06;5073315;28;20028;-75
2023/10/22 06:59:02;;;;;;;2.95;1.13;;;;;;;17.08;100.00;98086.34;5069722;28;20092;-75
2023/10/22 07:01:28;;;;;;;3.53;1.00;;;;;;;17.48;100.00;98092.31;5053810;28;20016;-76
2023/10/22 07:03:53;;;;;;;4.38;1.05;;;;;;;18.18;100.00;98110.13;5066237;28;20027;-76
2023/10/22 07:06:18;;;;;;;4.22;1.00;;;;;;;18.02;100.00;98113.88;5076804;28;20016;-75
2023/10/22 07:08:45;;;;;;;4.72;0.98;;;;;;;18.75;100.00;98119.28;5075701;28;20048;-75
2023/10/22 07:11:10;;;;;;;3.97;0.90;;;;;;;18.79;100.00;98116.81;5039040;28;20121;-75
2023/10/22 07:13:36;;;;;;;3.80;0.90;;;;;;;18.62;100.00;98106.91;5044088;28;20020;-74
2023/10/22 07:16:01;;;;;;;2.35;1.00;;;;;;;19.27;95.73;98109.09;5048225;28;20033;-74
2023/10/22 07:18:27;;;;;;;3.65;0.75;;;;;;;18.85;99.51;98118.47;5059883;28;20314;-72
2023/10/22 07:20:52;;;;;;;4.05;0.85;;;;;;;18.89;98.59;98121.47;5061467;28;20033;-71
2023/10/22 07:23:18;;;;;;;5.00;0.88;;;;;;;19.87;87.86;98114.72;5065448;28;20052;-72
2023/10/22 07:25:43;;;;;;;3.22;0.60;;;;;;;19.71;83.68;98135.91;5064106;28;20021;-72
2023/10/22 07:28:12;;;;;;;1.95;0.80;;;;;;;20.53;80.29;98128.09;5056924;28;20088;-72
2023/10/22 07:30:37;;;;;;;1.27;0.60;;;;;;;21.07;76.37;98134.63;5053862;28;20025;-72
2023/10/22 07:33:02;;;;;;;3.17;0.65;;;;;;;21.34;73.27;98130.50;5052749;28;20076;-72
2023/10/22 07:35:28;;;;;;;2.65;0.93;;;;;;;21.02;71.52;98137.41;5064247;28;20016;-76
2023/10/22 07:37:53;;;;;;;3.40;0.70;;;;;;;21.45;72.20;98138.38;5073563;28;20013;-75
2023/10/22 07:40:18;;;;;;;3.45;0.82;;;;;;;20.49;74.26;98142.72;5079877;28;20063;-75
2023/10/22 07:42:44;;;;;;;2.25;0.63;;;;;;;21.59;72.28;98146.00;5067141;28;20130;-76
2023/10/22 07:45:10;;;;;;;2.10;1.00;;;;;;;21.56;69.35;98150.16;5062423;28;20088;-77
2023/10/22 07:47:36;;;;;;;2.22;0.60;;;;;;;22.00;68.52;98149.06;5075514;28;20047;-75
2023/10/22 07:50:06;;;;;;;2.67;1.00;;;;;;;22.72;66.58;98150.91;5057011;28;20039;-75
2023/10/22 07:52:32;;;;;;;5.00;0.95;;;;;;;22.72;65.51;98161.94;5064333;28;20025;-76
2023/10/22 07:54:58;;;;;;;5.75;1.20;;;;;;;21.77;68.32;98159.00;5045733;28;20344;-75
2023/10/22 07:57:26;;;;;;;4.13;0.70;;;;;;;21.92;67.26;98158.00;5045610;28;20210;-75
2023/10/22 07:59:51;;;;;;;3.08;0.98;;;;;;;23.09;63.45;98158.34;5071794;28;20021;-75
2023/10/22 08:02:17;;;;;;;2.65;0.75;;;;;;;23.23;62.67;98163.09;5041808;28;20062;-76
2023/10/22 08:04:42;;;;;;;3.22;0.70;;;;;;;24.48;60.37;98167.63;5060468;28;20021;-75
2023/10/22 08:07:07;;;;;;;2.95;0.70;;;;;;;24.38;59.33;98154.00;5060735;28;20369;-76
2023/10/22 08:09:32;;;;;;;1.55;0.77;;;;;;;24.04;58.42;98172.66;5052634;28;20025;-75
2023/10/22 08:11:58;;;;;;;2.33;0.95;;;;;;;23.67;57.98;98167.28;5060655;28;20035;-75
2023/10/22 08:14:24;;;;;;;6.45;0.90;;;;;;;24.38;55.82;98171.41;5042006;28;20029;-75
2023/10/22 08:16:50;;;;;;;4.07;1.00;;;;;;;23.81;57.91;98180.00;5056121;28;20095;-75
2023/10/22 08:19:15;;;;;;;4.72;0.93;;;;;;;24.32;56.71;98174.59;5065960;28;20024;-76
2023/10/22 08:21:41;;;;;;;6.07;1.10;;;;;;;24.68;56.35;98169.97;5044819;28;20021;-75
2023/10/22 08:24:07;;;;;;;3.05;0.75;;;;;;;24.63;56.11;98167.31;5043116;28;20056;-78
2023/10/22 08:26:32;;;;;;;3.22;0.70;;;;;;;23.56;56.53;98194.28;5046704;28;20055;-79
2023/10/22 08:28:57;;;;;;;4.43;0.90;;;;;;;23.77;57.19;98187.28;5046939;28;20009;-74
2023/10/22 08:31:23;;;;;;;4.70;1.10;;;;;;;24.57;54.49;98179.59;5061647;28;20451;-76
2023/10/22 08:33:48;;;;;;;4.10;0.60;;;;;;;25.25;54.50;98176.94;5040137;28;20044;-75
2023/10/22 08:36:13;;;;;;;3.08;0.70;;;;;;;26.21;53.21;98175.50;5059053;28;20066;-75
2023/10/22 08:38:39;;;;;;;7.03;1.00;;;;;;;26.60;51.41;98182.16;5060335;28;20393;-75
2023/10/22 08:41:13;;;;;;;3.85;0.80;;;;;;;26.06;51.48;98192.56;5036772;28;20028;-75
2023/10/22 08:43:43;;;;;;;1.65;0.60;;;;;;;26.46;50.75;98190.56;5045011;28;20084;-75
2023/10/22 08:46:08;;;;;;;2.78;0.77;;;;;;;27.63;49.27;98194.38;5041524;28;20412;-76
2023/10/22 08:48:36;;;;;;;4.20;0.88;;;;;;;28.12;48.40;98186.56;5038868;28;20033;-75
2023/10/22 08:51:03;;;;;;;3.70;0.95;;;;;;;26.92;46.46;98186.41;5051027;28;20025;-75
2023/10/22 08:53:29;;;;;;;1.33;0.50;;;;;;;27.45;46.46;98187.22;5038945;28;20021;-75
2023/10/22 08:55:56;;;;;;;1.75;0.40;;;;;;;29.09;42.93;98184.84;5037976;28;20064;-75
2023/10/22 08:58:22;;;;;;;2.83;0.70;;;;;;;29.78;41.94;98186.13;5058583;28;20058;-77
2023/10/22 09:00:49;;;;;;;3.28;0.52;;;;;;;26.93;44.18;98201.91;5057280;28;20025;-75
2023/10/22 09:03:16;;;;;;;5.55;0.68;;;;;;;27.26;45.38;98193.94;5035642;28;20021;-75
2023/10/22 09:05:42;;;;;;;4.45;0.60;;;;;;;28.81;43.49;98195.66;5054166;28;20024;-76
2023/10/22 09:08:08;;;;;;;3.63;0.73;;;;;;;29.20;42.97;98196.38;5028359;28;20025;-76
2023/10/22 09:10:34;;;;;;;1.88;0.30;;;;;;;28.26;43.34;98200.22;5040118;28;20033;-76
2023/10/22 09:13:22;;;;;;;3.70;0.68;;;;;;;27.62;43.36;98212.22;5059167;28;20025;-75
2023/10/22 09:15:50;;;;;;;3.85;0.63;;;;;;;25.81;45.87;98211.50;5036042;28;20331;-75
2023/10/22 09:18:17;;;;;;;1.93;0.50;;;;;;;26.45;44.76;98209.16;5058194;28;20024;-75
2023/10/22 09:20:47;;;;;;;3.53;0.90;;;;;;;25.80;45.42;98212.63;5066348;28;20021;-76
2023/10/22 09:23:15;;;;;;;4.18;0.88;;;;;;;27.86;44.41;98210.88;5063087;28;20233;-76
2023/10/22 09:25:42;;;;;;;2.20;0.80;;;;;;;27.97;42.99;98201.00;5060142;28;20025;-76
2023/10/22 09:28:12;;;;;;;1.90;0.63;;;;;;;29.26;41.64;98201.38;5044974;28;20040;-75
2023/10/22 09:30:38;;;;;;;3.17;0.75;;;;;;;27.00;43.51;98198.66;5064975;28;20028;-75
2023/10/22 09:33:03;;;;;;;5.40;0.65;;;;;;;27.51;43.52;98206.19;5061754;28;20051;-75
2023/10/22 09:35:29;;;;;;;2.72;0.70;;;;;;;29.22;42.20;98196.84;5064544;28;20025;-75
2023/10/22 09:37:58;;;;;;;1.98;0.50;;;;;;;30.71;40.30;98207.97;5067021;28;20098;-75
2023/10/22 09:40:23;;;;;;;3.67;0.60;;;;;;;28.89;40.56;98203.16;5055114;28;20029;-75
2023/10/22 09:42:50;;;;;;;5.38;0.70;;;;;;;27.65;42.00;98207.94;5068099;28;20032;-75
2023/10/22 09:45:17;;;;;;;3.88;0.95;;;;;;;27.94;41.93;98205.28;5062770;28;20067;-76
2023/10/22 09:47:46;;;;;;;4.25;0.77;;;;;;;28.68;41.26;98203.13;5070161;28;20209;-76
2023/10/22 09:50:14;;;;;;;3.45;0.75;;;;;;;29.48;39.84;98202.19;5074127;28;20064;-76
2023/10/22 09:52:42;;;;;;;7.05;0.80;;;;;;;28.26;41.52;98207.75;5065901;28;20090;-76
2023/10/22 09:55:15;;;;;;;5.80;0.80;;;;;;;27.36;42.30;98212.25;5062617;28;20020;-75
2023/10/22 09:57:40;;;;;;;2.05;0.50;;;;;;;28.89;40.77;98208.72;5046893;28;20218;-75
2023/10/22 10:00:12;;;;;;;3.60;0.55;;;;;;;27.42;41.81;98218.44;5063192;28;20024;-76
2023/10/22 10:02:38;;;;;;;3.75;0.60;;;;;;;28.06;42.14;98203.75;5068558;28;20105;-76
2023/10/22 10:05:06;;;;;;;4.35;0.93;;;;;;;28.99;41.05;98204.72;5065204;28;20134;-76
2023/10/22 10:07:31;;;;;;;6.10;0.80;;;;;;;30.59;38.79;98200.41;5058156;28;20465;-76
2023/10/22 10:09:58;;;;;;;2.58;0.60;;;;;;;27.57;41.58;98211.56;5063896;28;20059;-76
2023/10/22 10:12:28;;;;;;;3.00;0.65;;;;;;;26.54;43.35;98206.47;5042474;28;20024;-76
2023/10/22 10:14:53;;;;;;;3.78;0.70;;;;;;;24.25;46.25;98205.41;5063969;28;20021;-75
2023/10/22 10:17:19;;;;;;;5.32;0.90;;;;;;;23.29;48.79;98220.69;5063595;28;20121;-75
2023/10/22 10:19:47;;;;;;;3.63;0.80;;;;;;;22.39;51.23;98216.16;5068847;28;20040;-76
2023/10/22 10:22:42;;;;;;;5.75;0.93;;;;;;;22.48;51.90;98217.97;5045361;28;20025;-75
2023/10/22 10:25:28;;;;;;;4.15;0.77;;;;;;;22.77;51.46;98217.03;5067075;28;20031;-75
2023/10/22 10:27:54;;;;;;;4.57;0.60;;;;;;;21.72;52.54;98216.88;5062749;28;20020;-76
2023/10/22 10:30:22;;;;;;;7.22;0.95;;;;;;;20.20;56.23;98224.97;5072111;28;20263;-75
2023/10/22 10:32:51;;;;;;;3.30;0.80;;;;;;;20.23;57.47;98222.50;5067424;28;20477;-75
2023/10/22 10:35:17;;;;;;;4.10;0.70;;;;;;;19.23;60.99;98232.25;5067051;28;20029;-76
2023/10/22 10:38:13;;;;;;;3.03;0.70;;;;;;;18.93;65.28;98241.25;5059352;28;20021;-76
2023/10/22 10:40:44;;;;;;;6.45;0.93;;;;;;;18.68;66.33;98230.19;5057352;28;20024;-75
2023/10/22 10:43:09;;;;;;;4.50;0.82;;;;;;;18.11;72.03;98231.94;5065173;28;20029;-76
2023/10/22 10:45:35;;;;;;;4.63;0.70;;;;;;;18.06;78.03;98229.97;5060227;28;20017;-76
2023/10/22 10:48:01;;;;;;;7.72;0.60;;;;;;;18.09;84.28;98236.84;5071662;28;20028;-75
2023/10/22 10:50:26;;;;;;;4.05;0.50;;;;;;;17.80;85.92;98220.81;5063939;28;20035;-75
2023/10/22 10:52:52;;;;;;;4.88;0.80;;;;;;;18.05;93.96;98239.31;5045251;28;20029;-75
2023/10/22 10:55:20;;;;;;;8.32;0.75;;;;;;;19.97;80.05;98240.19;5050320;28;20085;-75
2023/10/22 10:57:50;;;;;;;4.33;0.77;;;;;;;22.32;64.07;98219.25;5077398;28;20016;-75
2023/10/22 11:00:20;;;;;;;4.72;0.90;;;;;;;21.68;63.12;98224.06;5057556;28;20234;-76
2023/10/22 11:02:52;;;;;;;5.05;0.98;;;;;;;21.45;64.48;98226.47;5060721;28;20055;-76
2023/10/22 11:05:30;;;;;;;4.13;0.60;;;;;;;20.36;69.01;98221.91;5065857;28;20017;-75
2023/10/22 11:07:56;;;;;;;3.53;0.57;;;;;;;20.16;69.93;98223.91;5054448;28;20020;-75
2023/10/22 11:10:21;;;;;;;4.97;0.65;;;;;;;19.81;71.68;98226.47;5064162;28;20028;-75
2023/10/22 11:12:47;;;;;;;3.15;0.55;;;;;;;19.63;73.11;98227.03;5058096;28;20033;-75
2023/10/22 11:15:13;;;;;;;2.67;0.65;;;;;;;19.96;73.71;98225.59;5064102;28;20044;-75
2023/10/22 11:17:45;;;;;;;3.88;0.70;;;;;;;20.99;72.88;98226.00;5062752;28;20025;-74
2023/10/22 11:20:13;;;;;;;3.10;0.70;;;;;;;22.88;64.22;98214.94;5074326;28;20021;-75
2023/10/22 11:22:39;;;;;;;3.47;0.60;;;;;;;23.97;61.32;98219.25;5052815;28;20016;-75
2023/10/22 11:25:09;;;;;;;4.90;0.60;;;;;;;24.58;54.51;98214.44;5064547;28;20107;-75
2023/10/22 11:27:37;;;;;;;5.00;0.82;;;;;;;24.86;53.72;98208.81;5062828;28;20037;-75
2023/10/22 11:30:03;;;;;;;3.45;0.68;;;;;;;25.34;53.36;98216.59;5063210;28;20237;-75